createdAt,value
2023-04-10T00:00:57.697Z,101115.94
2023-04-10T00:03:27.063Z,101176.06
2023-04-10T00:05:55.546Z,101171.63
2023-04-10T00:08:24.230Z,101175.16
2023-04-10T00:10:53.306Z,101179.59
2023-04-10T00:13:21.726Z,101175.19
2023-04-10T00:15:50.170Z,101148.63
2023-04-10T00:18:19.458Z,101172.53
2023-04-10T00:20:47.313Z,101167.22
2023-04-10T00:23:15.433Z,101165.44
2023-04-10T00:25:43.287Z,101131.84
2023-04-10T00:28:11.152Z,101161.91
2023-04-10T00:30:39.588Z,101161.03
2023-04-10T00:33:07.465Z,101161.91
2023-04-10T00:35:36.717Z,101007.19
2023-04-10T00:38:04.648Z,101164.59
2023-04-10T00:40:32.526Z,101159.28
2023-04-10T00:43:00.614Z,101152.19
2023-04-10T00:45:28.866Z,101051.38
2023-04-10T00:47:57.035Z,101100.88
2023-04-10T00:50:25.545Z,101145.97
2023-04-10T00:52:54.739Z,101161.91
2023-04-10T00:55:23.433Z,101157.50
2023-04-10T00:57:51.325Z,101156.59
2023-04-10T01:00:19.970Z,101148.66
2023-04-10T01:02:49.242Z,101154.81
2023-04-10T01:05:18.496Z,101117.66
2023-04-10T01:08:00.739Z,101149.50
2023-04-10T01:10:39.498Z,101153.94
2023-04-10T01:13:15.526Z,101154.78
2023-04-10T01:15:48.848Z,101148.63
2023-04-10T01:18:23.934Z,101146.88
2023-04-10T01:20:51.786Z,101136.25
2023-04-10T01:24:04.604Z,101151.28
2023-04-10T01:26:44.315Z,101148.59
2023-04-10T01:29:19.633Z,101132.66
2023-04-10T01:31:53.487Z,101132.66
2023-04-10T01:34:24.885Z,101152.13
2023-04-10T01:36:56.360Z,101145.94
2023-04-10T01:39:28.144Z,101111.41
2023-04-10T01:41:59.868Z,101128.25
2023-04-10T01:44:42.843Z,101137.97
2023-04-10T01:47:11.241Z,101148.56
2023-04-10T01:49:44.381Z,101145.03
2023-04-10T01:52:13.006Z,101128.19
2023-04-10T01:54:43.318Z,101145.88
2023-04-10T01:57:15.245Z,101109.59
2023-04-10T01:59:56.104Z,101113.09
2023-04-10T02:02:24.293Z,101137.06
2023-04-10T02:04:52.375Z,101101.66
2023-04-10T02:07:26.649Z,101138.81
2023-04-10T02:10:01.053Z,101129.06
2023-04-10T02:12:32.034Z,101122.84
2023-04-10T02:15:03.917Z,101107.78
2023-04-10T02:17:34.204Z,101133.44
2023-04-10T02:20:06.551Z,101015.59
2023-04-10T02:22:35.435Z,101124.44
2023-04-10T02:25:05.517Z,101129.78
2023-04-10T02:27:35.576Z,101124.53
2023-04-10T02:30:05.868Z,101081.09
2023-04-10T02:32:36.942Z,101124.56
2023-04-10T02:35:09.227Z,101117.50
2023-04-10T02:37:38.638Z,101104.19
2023-04-10T02:40:07.925Z,101117.47
2023-04-10T02:42:47.479Z,101100.63
2023-04-10T02:45:16.861Z,101113.94
2023-04-10T02:47:45.515Z,101075.88
2023-04-10T02:50:13.556Z,101098.81
2023-04-10T02:52:45.009Z,101042.22
2023-04-10T02:55:13.073Z,101091.72
2023-04-10T02:57:42.543Z,101108.53
2023-04-10T03:00:11.755Z,101104.16
2023-04-10T03:03:10.372Z,101099.75
2023-04-10T03:05:49.539Z,101101.50
2023-04-10T03:08:20.187Z,101004.25
2023-04-10T03:10:49.452Z,101094.50
2023-04-10T03:13:17.516Z,101074.16
2023-04-10T03:15:45.555Z,100999.78
2023-04-10T03:18:15.081Z,101089.19
2023-04-10T03:20:45.403Z,101079.47
2023-04-10T03:23:13.456Z,101069.72
2023-04-10T03:25:42.263Z,101060.88
2023-04-10T03:28:10.863Z,101087.44
2023-04-10T03:30:38.939Z,101073.25
2023-04-10T03:33:06.797Z,101078.56
2023-04-10T03:35:35.982Z,101074.13
2023-04-10T03:38:03.854Z,101075.88
2023-04-10T03:40:31.628Z,101089.91
2023-04-10T03:42:59.596Z,101079.34
2023-04-10T03:45:29.407Z,101066.06
2023-04-10T03:47:57.306Z,101070.47
2023-04-10T03:50:26.096Z,101058.09
2023-04-10T03:53:01.739Z,101025.38
2023-04-10T03:55:29.679Z,101073.16
2023-04-10T03:57:57.765Z,101049.25
2023-04-10T04:00:27.275Z,101079.31
2023-04-10T04:03:05.022Z,101074.84
2023-04-10T04:05:57.611Z,101075.72
2023-04-10T04:08:26.878Z,101081.94
2023-04-10T04:11:30.066Z,101070.41
2023-04-10T04:14:04.294Z,101045.66
2023-04-10T04:16:45.071Z,101077.50
2023-04-10T04:19:27.807Z,101051.84
2023-04-10T04:22:31.029Z,101073.97
2023-04-10T04:25:22.713Z,101058.09
2023-04-10T04:28:21.064Z,101070.44
2023-04-10T04:31:18.095Z,101057.19
2023-04-10T04:34:04.547Z,101074.75
2023-04-10T04:37:10.663Z,101043.81
2023-04-10T04:40:12.344Z,101075.69
2023-04-10T04:42:59.554Z,101074.84
2023-04-10T04:45:45.912Z,101072.22
2023-04-10T04:48:30.691Z,101068.63
2023-04-10T04:51:18.616Z,101074.78
2023-04-10T04:53:50.992Z,101046.47
2023-04-10T04:56:46.949Z,101072.16
2023-04-10T04:59:47.234Z,101081.91
2023-04-10T05:02:38.066Z,101045.50
2023-04-10T05:05:26.135Z,101080.13
2023-04-10T05:08:10.865Z,101077.56
2023-04-10T05:10:47.827Z,101073.09
2023-04-10T05:13:30.868Z,101075.78
2023-04-10T05:16:15.926Z,101076.78
2023-04-10T05:19:02.145Z,101071.56
2023-04-10T05:21:53.267Z,101071.63
2023-04-10T05:24:33.618Z,101004.41
2023-04-10T05:27:16.163Z,101078.72
2023-04-10T05:30:19.286Z,100985.91
2023-04-10T05:33:07.177Z,101082.28
2023-04-10T05:36:07.915Z,101080.53
2023-04-10T05:38:51.109Z,101075.25
2023-04-10T05:41:48.070Z,101075.25
2023-04-10T05:44:36.127Z,101066.38
2023-04-10T05:47:04.070Z,101067.28
2023-04-10T05:49:59.132Z,101079.66
2023-04-10T05:52:36.576Z,101056.63
2023-04-10T05:55:24.384Z,100980.59
2023-04-10T05:58:15.382Z,101081.22
2023-04-10T06:01:03.155Z,101075.81
2023-04-10T06:03:45.441Z,101072.28
2023-04-10T06:06:15.080Z,101066.06
2023-04-10T06:08:42.946Z,101028.97
2023-04-10T06:11:10.857Z,101067.91
2023-04-10T06:13:39.140Z,101069.69
2023-04-10T06:16:08.090Z,101062.59
2023-04-10T06:18:36.152Z,101059.88
2023-04-10T06:21:04.930Z,101057.84
2023-04-10T06:23:34.159Z,101056.63
2023-04-10T06:26:03.420Z,101026.75
2023-04-10T06:28:31.489Z,101048.53
2023-04-10T06:31:04.275Z,101041.16
2023-04-10T06:33:36.621Z,101031.16
2023-04-10T06:36:06.864Z,101038.91
2023-04-10T06:38:41.260Z,101027.19
2023-04-10T06:41:09.227Z,101026.66
2023-04-10T06:43:38.084Z,101035.75
2023-04-10T06:46:06.466Z,101033.38
2023-04-10T06:48:34.837Z,100983.66
2023-04-10T06:51:02.819Z,101023.50
2023-04-10T06:53:31.198Z,101012.84
2023-04-10T06:56:03.152Z,101016.66
2023-04-10T06:58:32.021Z,101015.34
2023-04-10T07:01:04.456Z,101007.97
2023-04-10T07:03:32.802Z,101016.56
2023-04-10T07:06:01.980Z,101015.28
2023-04-10T07:08:29.851Z,100836.22
2023-04-10T07:10:58.719Z,101017.94
2023-04-10T07:13:28.198Z,100999.19
2023-04-10T07:15:56.126Z,101005.69
2023-04-10T07:18:24.028Z,101009.44
2023-04-10T07:20:52.607Z,101000.38
2023-04-10T07:23:20.630Z,100995.38
2023-04-10T07:25:48.434Z,101014.88
2023-04-10T07:28:16.387Z,101000.88
2023-04-10T07:30:45.508Z,100929.69
2023-04-10T07:33:13.508Z,100977.53
2023-04-10T07:35:41.666Z,100983.25
2023-04-10T07:38:09.757Z,100998.13
2023-04-10T07:40:37.560Z,100915.81
2023-04-10T07:43:05.493Z,100944.16
2023-04-10T07:45:33.745Z,100994.84
2023-04-10T07:48:03.531Z,100990.00
2023-04-10T07:50:31.897Z,100995.50
2023-04-10T07:53:03.493Z,100959.13
2023-04-10T07:55:31.353Z,100984.38
2023-04-10T07:57:59.191Z,100975.31
2023-04-10T08:00:27.106Z,100977.34
2023-04-10T08:02:55.065Z,100971.63
2023-04-10T08:05:24.526Z,100972.97
2023-04-10T08:07:52.441Z,100970.81
2023-04-10T08:10:20.311Z,100969.84
2023-04-10T08:12:48.188Z,100962.78
2023-04-10T08:15:16.238Z,100963.78
2023-04-10T08:17:44.054Z,100962.09
2023-04-10T08:20:13.017Z,100959.94
2023-04-10T08:22:42.143Z,100933.22
2023-04-10T08:25:10.790Z,100960.63
2023-04-10T08:27:38.968Z,100955.66
2023-04-10T08:30:07.883Z,100935.03
2023-04-10T08:32:36.578Z,100925.75
2023-04-10T08:35:04.738Z,100938.75
2023-04-10T08:37:32.466Z,100937.69
2023-04-10T08:40:01.691Z,100936.91
2023-04-10T08:42:29.534Z,100926.34
2023-04-10T08:44:57.423Z,100922.34
2023-04-10T08:47:29.151Z,100933.69
2023-04-10T08:49:58.498Z,100920.03
2023-04-10T08:52:27.737Z,100914.09
2023-04-10T08:54:57.514Z,100898.19
2023-04-10T08:57:27.986Z,100899.59
2023-04-10T08:59:56.477Z,100897.28
2023-04-10T09:02:25.771Z,100886.69
2023-04-10T09:04:55.588Z,100858.59
2023-04-10T09:07:24.242Z,100861.78
2023-04-10T09:09:52.066Z,100865.41
2023-04-10T09:12:19.907Z,100853.91
2023-04-10T09:14:53.304Z,100851.75
2023-04-10T09:17:22.637Z,100852.81
2023-04-10T09:19:52.429Z,100857.44
2023-04-10T09:22:29.735Z,100845.28
2023-04-10T09:24:59.339Z,100850.84
2023-04-10T09:27:35.217Z,100848.44
2023-04-10T09:30:05.693Z,100847.22
2023-04-10T09:32:41.965Z,100826.66
2023-04-10T09:35:11.756Z,100825.75
2023-04-10T09:37:41.132Z,100820.03
2023-04-10T09:40:22.338Z,100826.28
2023-04-10T09:42:50.376Z,100831.69
2023-04-10T09:45:20.475Z,100808.63
2023-04-10T09:48:02.791Z,100824.38
2023-04-10T09:50:38.022Z,100820.03
2023-04-10T09:53:07.582Z,100821.63
2023-04-10T09:55:36.326Z,100796.34
2023-04-10T09:58:05.323Z,100794.31
2023-04-10T10:00:39.844Z,100800.28
2023-04-10T10:03:10.145Z,100774.72
2023-04-10T10:05:41.074Z,100784.84
2023-04-10T10:08:11.072Z,100772.81
2023-04-10T10:10:46.043Z,100769.63
2023-04-10T10:13:19.018Z,100776.22
2023-04-10T10:15:56.112Z,100762.47
2023-04-10T10:18:32.213Z,100759.94
2023-04-10T10:21:01.178Z,100731.69
2023-04-10T10:23:29.688Z,100756.00
2023-04-10T10:26:00.231Z,100741.09
2023-04-10T10:28:32.538Z,100741.84
2023-04-10T10:31:03.637Z,100599.38
2023-04-10T10:33:31.821Z,100733.78
2023-04-10T10:36:01.365Z,100709.56
2023-04-10T10:38:29.494Z,100719.59
2023-04-10T10:41:07.828Z,100651.13
2023-04-10T10:43:43.411Z,100716.03
2023-04-10T10:46:18.492Z,100700.25
2023-04-10T10:48:57.788Z,100696.75
2023-04-10T10:51:25.903Z,100692.94
2023-04-10T10:53:53.840Z,100661.44
2023-04-10T10:56:35.499Z,100681.84
2023-04-10T10:59:03.361Z,100677.91
2023-04-10T11:01:32.787Z,100671.97
2023-04-10T11:04:01.371Z,100666.56
2023-04-10T11:06:53.516Z,100627.75
2023-04-10T11:09:45.814Z,100656.06
2023-04-10T11:12:14.028Z,100633.72
2023-04-10T11:14:43.616Z,100635.56
2023-04-10T11:17:12.962Z,100618.53
2023-04-10T11:20:01.547Z,100510.78
2023-04-10T11:22:29.528Z,100627.91
2023-04-10T11:24:59.956Z,100611.00
2023-04-10T11:27:42.381Z,100613.44
2023-04-10T11:30:43.573Z,100610.50
2023-04-10T11:33:18.939Z,100579.13
2023-04-10T11:35:47.450Z,100603.34
2023-04-10T11:38:18.151Z,100595.06
2023-04-10T11:40:59.569Z,100591.41
2023-04-10T11:43:27.562Z,100583.97
2023-04-10T11:46:03.487Z,100565.59
2023-04-10T11:48:33.310Z,100586.56
2023-04-10T11:51:07.453Z,100582.59
2023-04-10T11:53:35.372Z,100576.53
2023-04-10T11:56:03.113Z,100566.25
2023-04-10T11:58:32.034Z,100572.16
2023-04-10T12:01:01.180Z,100557.28
2023-04-10T12:03:35.623Z,100546.25
2023-04-10T12:06:04.098Z,100560.19
2023-04-10T12:08:32.808Z,100556.13
2023-04-10T12:11:01.332Z,100554.09
2023-04-10T12:13:30.589Z,100546.19
2023-04-10T12:16:03.466Z,100538.06
2023-04-10T12:18:31.989Z,100539.69
2023-04-10T12:21:01.958Z,100530.22
2023-04-10T12:23:31.115Z,100530.50
2023-04-10T12:26:11.294Z,100510.75
2023-04-10T12:28:40.509Z,100519.56
2023-04-10T12:31:09.414Z,100493.88
2023-04-10T12:33:37.570Z,100528.75
2023-04-10T12:36:07.357Z,100481.75
2023-04-10T12:38:42.784Z,100520.59
2023-04-10T12:41:11.686Z,100501.69
2023-04-10T12:43:41.187Z,100501.41
2023-04-10T12:46:11.243Z,100508.91
2023-04-10T12:48:39.318Z,100501.03
2023-04-10T12:51:08.829Z,100476.88
2023-04-10T12:53:45.252Z,100462.38
2023-04-10T12:56:14.686Z,100471.50
2023-04-10T12:58:42.708Z,100490.13
2023-04-10T13:01:11.044Z,100495.59
2023-04-10T13:03:39.144Z,100478.66
2023-04-10T13:06:09.429Z,100476.72
2023-04-10T13:08:37.095Z,100466.09
2023-04-10T13:11:05.626Z,100466.00
2023-04-10T13:13:33.650Z,100459.06
2023-04-10T13:16:01.647Z,100445.47
2023-04-10T13:18:29.587Z,100446.22
2023-04-10T13:20:57.443Z,100445.19
2023-04-10T13:23:26.639Z,100339.63
2023-04-10T13:25:54.625Z,100411.88
2023-04-10T13:28:22.582Z,100416.66
2023-04-10T13:30:50.515Z,100384.47
2023-04-10T13:33:18.402Z,100399.97
2023-04-10T13:35:46.353Z,100410.09
2023-04-10T13:38:14.332Z,100398.22
2023-04-10T13:40:43.698Z,100365.13
2023-04-10T13:43:11.536Z,100300.38
2023-04-10T13:45:39.295Z,100382.88
2023-04-10T13:48:08.139Z,100376.06
2023-04-10T13:50:36.126Z,100339.72
2023-04-10T13:53:03.997Z,100366.97
2023-04-10T13:55:31.805Z,100358.91
2023-04-10T13:58:01.130Z,100358.41
2023-04-10T14:00:28.960Z,100348.84
2023-04-10T14:02:57.135Z,100357.63
2023-04-10T14:05:25.153Z,100339.50
2023-04-10T14:07:56.801Z,100338.56
2023-04-10T14:10:24.669Z,100330.59
2023-04-10T14:12:52.482Z,100246.44
2023-04-10T14:15:21.761Z,100301.31
2023-04-10T14:17:49.699Z,100313.25
2023-04-10T14:20:17.635Z,100306.75
2023-04-10T14:22:47.355Z,100267.94
2023-04-10T14:25:15.935Z,100300.66
2023-04-10T14:27:44.247Z,100284.09
2023-04-10T14:30:13.743Z,100106.09
2023-04-10T14:32:43.941Z,100277.84
2023-04-10T14:35:11.753Z,100252.91
2023-04-10T14:37:39.981Z,100240.22
2023-04-10T14:40:08.925Z,100244.66
2023-04-10T14:42:36.796Z,100178.91
2023-04-10T14:45:06.188Z,100243.38
2023-04-10T14:47:34.129Z,100237.75
2023-04-10T14:50:03.708Z,100234.91
2023-04-10T14:52:31.571Z,100221.94
2023-04-10T14:54:59.381Z,100218.69
2023-04-10T14:57:28.072Z,100213.25
2023-04-10T14:59:56.067Z,100204.78
2023-04-10T15:02:24.416Z,100210.59
2023-04-10T15:04:52.405Z,100178.03
2023-04-10T15:07:21.704Z,100188.41
2023-04-10T15:09:49.483Z,100189.94
2023-04-10T15:12:17.581Z,100190.47
2023-04-10T15:14:45.468Z,100150.16
2023-04-10T15:17:13.522Z,100182.81
2023-04-10T15:19:41.420Z,100175.97
2023-04-10T15:22:09.363Z,100160.47
2023-04-10T15:24:49.879Z,100148.03
2023-04-10T15:27:20.226Z,100149.53
2023-04-10T15:29:50.250Z,100160.47
2023-04-10T15:32:18.111Z,100143.44
2023-04-10T15:34:45.939Z,100150.59
2023-04-10T15:37:13.776Z,100147.03
2023-04-10T15:39:43.112Z,100135.19
2023-04-10T15:42:11.007Z,100135.00
2023-04-10T15:44:38.881Z,100132.41
2023-04-10T15:47:06.795Z,100101.31
2023-04-10T15:49:38.514Z,100116.56
2023-04-10T15:52:06.910Z,100107.25
2023-04-10T15:54:35.389Z,100107.59
2023-04-10T15:57:04.881Z,100099.69
2023-04-10T15:59:33.813Z,100101.41
2023-04-10T16:02:01.895Z,100099.25
2023-04-10T16:04:31.453Z,100095.91
2023-04-10T16:06:59.599Z,100091.97
2023-04-10T16:09:27.650Z,100077.47
2023-04-10T16:11:56.154Z,100045.72
2023-04-10T16:14:25.629Z,100017.75
2023-04-10T16:16:55.930Z,100067.28
2023-04-10T16:19:23.926Z,100063.28
2023-04-10T16:21:51.801Z,100051.59
2023-04-10T16:24:19.574Z,100050.81
2023-04-10T16:26:47.452Z,100051.38
2023-04-10T16:29:16.038Z,100042.84
2023-04-10T16:31:45.500Z,100042.50
2023-04-10T16:34:13.478Z,100026.03
2023-04-10T16:36:41.313Z,100028.63
2023-04-10T16:39:09.136Z,100002.75
2023-04-10T16:41:36.978Z,100005.56
2023-04-10T16:44:07.918Z,100028.50
2023-04-10T16:46:36.247Z,100025.94
2023-04-10T16:49:05.718Z,100019.44
2023-04-10T16:51:33.737Z,100011.16
2023-04-10T16:54:01.616Z,100015.47
2023-04-10T16:56:29.422Z,99991.97
2023-04-10T16:58:57.824Z,99994.59
2023-04-10T17:01:26.082Z,100011.91
2023-04-10T17:03:54.722Z,100002.88
2023-04-10T17:06:24.057Z,100008.22
2023-04-10T17:08:51.972Z,99963.91
2023-04-10T17:11:19.812Z,99973.94
2023-04-10T17:13:47.812Z,99987.91
2023-04-10T17:16:16.434Z,99995.09
2023-04-10T17:18:44.547Z,99946.44
2023-04-10T17:21:13.246Z,99995.25
2023-04-10T17:23:42.691Z,99994.19
2023-04-10T17:26:14.702Z,99996.03
2023-04-10T17:28:44.869Z,99997.31
2023-04-10T17:31:13.146Z,99988.44
2023-04-10T17:33:42.154Z,99983.03
2023-04-10T17:36:12.248Z,99939.69
2023-04-10T17:38:40.468Z,99973.28
2023-04-10T17:41:10.534Z,99970.44
2023-04-10T17:43:38.428Z,99963.56
2023-04-10T17:46:06.915Z,99960.75
2023-04-10T17:48:35.204Z,99937.59
2023-04-10T17:51:06.273Z,99951.44
2023-04-10T17:53:34.245Z,99948.56
2023-04-10T17:56:02.179Z,99945.09
2023-04-10T17:58:31.691Z,99954.75
2023-04-10T18:00:59.778Z,99940.69
2023-04-10T18:03:27.795Z,99939.94
2023-04-10T18:05:56.750Z,99932.78
2023-04-10T18:08:24.740Z,99923.66
2023-04-10T18:10:52.800Z,99907.28
2023-04-10T18:13:20.675Z,99855.91
2023-04-10T18:15:50.011Z,99904.84
2023-04-10T18:18:17.871Z,99900.94
2023-04-10T18:20:45.938Z,99896.41
2023-04-10T18:23:13.866Z,99895.72
2023-04-10T18:25:41.941Z,99889.09
2023-04-10T18:28:14.976Z,99880.97
2023-04-10T18:30:43.938Z,99899.81
2023-04-10T18:33:14.191Z,99887.16
2023-04-10T18:35:42.234Z,99879.44
2023-04-10T18:38:10.254Z,99884.91
2023-04-10T18:40:38.344Z,99881.84
2023-04-10T18:43:06.376Z,99881.41
2023-04-10T18:45:34.969Z,99866.03
2023-04-10T18:48:03.016Z,99880.25
2023-04-10T18:50:35.071Z,99874.69
2023-04-10T18:53:03.267Z,99870.66
2023-04-10T18:55:31.357Z,99865.28
2023-04-10T18:57:59.250Z,99865.84
2023-04-10T19:00:27.216Z,99858.47
2023-04-10T19:02:56.442Z,99873.78
2023-04-10T19:05:24.566Z,99859.81
2023-04-10T19:08:03.553Z,99765.69
2023-04-10T19:10:32.568Z,99852.38
2023-04-10T19:13:00.346Z,99854.78
2023-04-10T19:15:28.317Z,99849.06
2023-04-10T19:17:56.590Z,99856.22
2023-04-10T19:20:50.871Z,99846.03
2023-04-10T19:23:14.132Z,99849.66
2023-04-10T19:25:43.662Z,99862.63
2023-04-10T19:28:11.663Z,99824.28
2023-04-10T19:30:39.598Z,99847.16
2023-04-10T19:33:07.558Z,99843.28
2023-04-10T19:35:35.509Z,99845.88
2023-04-10T19:38:03.457Z,99836.72
2023-04-10T19:40:32.727Z,99829.47
2023-04-10T19:43:01.974Z,99818.25
2023-04-10T19:45:32.174Z,99812.69
2023-04-10T19:48:00.404Z,99838.09
2023-04-10T19:50:29.459Z,99813.25
2023-04-10T19:52:57.309Z,99834.03
2023-04-10T19:55:25.131Z,99819.19
2023-04-10T19:57:54.666Z,99774.00
2023-04-10T20:00:22.535Z,99814.16
2023-04-10T20:02:50.510Z,99818.03
2023-04-10T20:05:18.573Z,99801.84
2023-04-10T20:07:46.480Z,99784.97
2023-04-10T20:10:14.285Z,99797.38
2023-04-10T20:12:42.360Z,99797.34
2023-04-10T20:15:12.578Z,99787.06
2023-04-10T20:17:40.636Z,99763.88
2023-04-10T20:20:09.490Z,99748.00
2023-04-10T20:22:37.306Z,99758.09
2023-04-10T20:25:05.594Z,99765.59
2023-04-10T20:27:33.416Z,99768.91
2023-04-10T20:30:01.258Z,99691.56
2023-04-10T20:32:30.512Z,99750.88
2023-04-10T20:34:58.319Z,99761.47
2023-04-10T20:37:26.232Z,99757.59
2023-04-10T20:39:54.094Z,99763.84
2023-04-10T20:42:23.148Z,99745.22
2023-04-10T20:44:51.036Z,99754.69
2023-04-10T20:47:18.900Z,99781.28
2023-04-10T20:49:48.055Z,99778.50
2023-04-10T20:52:15.859Z,99746.28
2023-04-10T20:54:43.629Z,99810.28
2023-04-10T20:57:11.483Z,99772.69
2023-04-10T20:59:39.334Z,99798.13
2023-04-10T21:02:07.615Z,99799.78
2023-04-10T21:04:35.755Z,99817.56
2023-04-10T21:07:04.889Z,99803.19
2023-04-10T21:09:32.714Z,99785.22
2023-04-10T21:12:00.520Z,99814.16
2023-04-10T21:14:28.279Z,99800.53
2023-04-10T21:16:56.192Z,99679.56
2023-04-10T21:19:24.121Z,99787.72
2023-04-10T21:21:51.981Z,99751.63
2023-04-10T21:24:21.124Z,99788.47
2023-04-10T21:26:48.948Z,99783.47
2023-04-10T21:29:16.835Z,99768.94
2023-04-10T21:31:44.789Z,99769.72
2023-04-10T21:34:12.595Z,99763.50
2023-04-10T21:36:40.469Z,99732.97
2023-04-10T21:39:09.208Z,99716.91
2023-04-10T21:41:38.882Z,99753.94
2023-04-10T21:44:07.837Z,99746.22
2023-04-10T21:46:35.684Z,99745.00
2023-04-10T21:49:03.564Z,99739.31
2023-04-10T21:51:31.426Z,99754.78
2023-04-10T21:53:59.265Z,99728.44
2023-04-10T21:56:27.117Z,99762.50
2023-04-10T21:58:56.502Z,99744.31
2023-04-10T22:01:24.435Z,99722.66
2023-04-10T22:03:53.823Z,99773.63
2023-04-10T22:06:21.981Z,99783.28
2023-04-10T22:08:49.973Z,99784.44
2023-04-10T22:11:17.878Z,99787.19
2023-04-10T22:13:45.926Z,99740.34
2023-04-10T22:16:15.491Z,99790.22
2023-04-10T22:18:43.281Z,99787.25
2023-04-10T22:21:11.135Z,99629.47
2023-04-10T22:23:38.925Z,99782.19
2023-04-10T22:26:07.336Z,99785.25
2023-04-10T22:28:35.457Z,99769.25
2023-04-10T22:31:03.335Z,99758.81
2023-04-10T22:33:34.424Z,99751.91
2023-04-10T22:36:02.275Z,99746.59
2023-04-10T22:38:30.163Z,99754.22
2023-04-10T22:40:58.166Z,99750.63
2023-04-10T22:43:26.074Z,99742.88
2023-04-10T22:45:53.926Z,99729.88
2023-04-10T22:48:21.837Z,99735.94
2023-04-10T22:50:51.068Z,99753.31
2023-04-10T22:53:18.881Z,99744.72
2023-04-10T22:55:46.800Z,99731.53
2023-04-10T22:58:14.616Z,99754.72
2023-04-10T23:00:42.522Z,99743.84
2023-04-10T23:03:10.567Z,99750.00
2023-04-10T23:05:38.520Z,99739.00
2023-04-10T23:08:10.365Z,99721.19
2023-04-10T23:10:38.226Z,99752.53
2023-04-10T23:13:06.080Z,99758.50
2023-04-10T23:15:34.268Z,99746.19
2023-04-10T23:18:02.059Z,99745.88
2023-04-10T23:20:29.905Z,99692.41
2023-04-10T23:22:57.740Z,99758.34
2023-04-10T23:25:26.965Z,99742.09
2023-04-10T23:27:55.520Z,99734.91
2023-04-10T23:30:23.498Z,99719.56
2023-04-10T23:32:51.465Z,99718.91
2023-04-10T23:35:19.394Z,99707.88
2023-04-10T23:37:47.426Z,99703.97
2023-04-10T23:40:15.362Z,99683.09
2023-04-10T23:42:44.598Z,99624.41
2023-04-10T23:45:12.783Z,99613.06
2023-04-10T23:47:40.636Z,99614.03
2023-04-10T23:50:09.683Z,99579.50
2023-04-10T23:52:37.619Z,99606.94
2023-04-10T23:55:06.367Z,99416.53
2023-04-10T23:57:34.238Z,99508.56
